Time;durP1;ratioP1;P1;durP2;ratioP2;P2;SDS_P1;SDS_P2;PMS_P1;PMS_P2;Temp;Humidity;BMP_temperature;BMP_pressure;BME280_temperature;BME280_humidity;BME280_pressure;Samples;Min_cycle;Max_cycle;Signal;HPM_P1;HPM_P2
2022/05/05 00:01:43;;;;;;;;;14.00;13.50;;;;;16.28;52.52;101468.38;5035994;28;45485;-47
2022/05/05 00:04:09;;;;;;;;;13.25;13.25;;;;;16.08;52.43;101434.31;5037184;28;45212;-50
2022/05/05 00:06:35;;;;;;;;;12.00;11.25;;;;;16.25;52.45;101461.38;5068817;28;47935;-48
2022/05/05 00:09:01;;;;;;;;;11.20;11.20;;;;;16.23;52.22;101453.28;5035635;28;45851;-48
2022/05/05 00:14:31;;;;;;;;;15.00;13.60;;;;;16.18;52.11;101466.16;5036108;28;45924;-48
2022/05/05 00:17:00;;;;;;;;;10.60;10.60;;;;;16.17;52.30;101467.22;5036453;28;45547;-49
2022/05/05 00:19:27;;;;;;;;;11.20;11.20;;;;;15.97;52.14;101448.94;5036371;28;45407;-48
2022/05/05 00:21:52;;;;;;;;;12.20;10.60;;;;;16.12;52.31;101468.75;5036488;28;45389;-48
2022/05/05 00:24:18;;;;;;;;;15.75;13.25;;;;;16.11;52.48;101477.28;5052055;28;45598;-51
2022/05/05 00:26:44;;;;;;;;;15.00;13.25;;;;;16.09;52.82;101485.84;5036302;28;46898;-48
2022/05/05 00:29:09;;;;;;;;;18.25;16.00;;;;;16.04;52.88;101474.63;5036678;28;45374;-46
2022/05/05 00:31:35;;;;;;;;;11.75;11.75;;;;;15.93;53.31;101464.31;5035948;28;45446;-50
2022/05/05 00:34:00;;;;;;;;;11.50;10.00;;;;;15.81;53.68;101467.78;5018745;28;45495;-49
2022/05/05 00:36:26;;;;;;;;;11.25;11.00;;;;;15.81;53.50;101478.03;5035809;28;45826;-50
2022/05/05 00:38:52;;;;;;;;;10.00;8.50;;;;;15.80;53.19;101471.63;5036318;28;45387;-48
2022/05/05 00:41:17;;;;;;;;;17.00;14.50;;;;;15.78;53.54;101473.78;5036498;28;45385;-47
2022/05/05 00:43:43;;;;;;;;;15.00;14.00;;;;;15.47;53.69;101431.31;5051754;27;45350;-47
2022/05/05 00:46:08;;;;;;;;;12.50;12.25;;;;;15.67;53.46;101471.78;5068541;28;45638;-49
2022/05/05 00:48:34;;;;;;;;;15.50;14.25;;;;;15.51;53.47;101451.06;5068113;28;45376;-47
2022/05/05 00:50:59;;;;;;;;;13.25;13.25;;;;;15.59;54.01;101476.53;5036082;28;45409;-49
2022/05/05 00:53:25;;;;;;;;;15.25;13.25;;;;;15.55;53.84;101475.31;5068725;28;45367;-48
2022/05/05 00:55:53;;;;;;;;;10.50;10.25;;;;;15.55;54.38;101468.94;5034571;28;45528;-52
2022/05/05 00:58:19;;;;;;;;;15.40;13.80;;;;;15.51;54.10;101474.06;5035847;28;45479;-47
2022/05/05 01:00:44;;;;;;;;;11.25;9.00;;;;;15.47;54.28;101475.59;5035958;28;45473;-47
2022/05/05 01:03:10;;;;;;;;;9.25;9.25;;;;;15.47;54.28;101475.59;5068688;28;45403;-46
2022/05/05 01:05:37;;;;;;;;;12.00;11.75;;;;;15.31;53.94;101450.22;5068314;28;45484;-48
2022/05/05 01:08:03;;;;;;;;;12.20;12.20;;;;;15.48;53.51;101480.03;5068083;28;46155;-47
2022/05/05 01:10:28;;;;;;;;;11.00;11.00;;;;;15.44;53.61;101482.41;5036378;28;45320;-50
2022/05/05 01:12:54;;;;;;;;;12.00;12.00;;;;;15.41;53.76;101474.59;5035663;28;45394;-45
2022/05/05 01:15:20;;;;;;;;;10.50;10.25;;;;;15.41;53.91;101485.66;5036074;28;46606;-46
2022/05/05 01:17:46;;;;;;;;;10.00;10.00;;;;;15.45;53.68;101483.28;5035729;28;45398;-46
2022/05/05 01:20:12;;;;;;;;;11.00;9.00;;;;;15.40;53.59;101483.09;5035891;28;45423;-49
2022/05/05 01:22:37;;;;;;;;;8.60;7.20;;;;;15.36;53.60;101479.13;5036109;28;45396;-49
2022/05/05 01:30:34;;;;;;;;;11.60;10.00;;;;;15.41;53.58;101482.03;5015219;28;45432;-48
2022/05/05 01:32:59;;;;;;;;;9.80;8.20;;;;;15.19;53.70;101446.47;5014555;28;45327;-47
2022/05/05 01:35:25;;;;;;;;;10.50;8.75;;;;;15.24;53.50;101471.53;5015546;28;45488;-46
2022/05/05 01:37:51;;;;;;;;;10.50;9.75;;;;;15.31;53.73;101479.75;5034444;28;45388;-47
2022/05/05 01:40:16;;;;;;;;;8.25;7.75;;;;;15.31;53.73;101474.22;5035506;28;45285;-47
2022/05/05 01:42:45;;;;;;;;;10.00;9.25;;;;;15.30;53.71;101478.94;5034542;28;45378;-47
2022/05/05 01:45:10;;;;;;;;;11.00;9.00;;;;;15.26;53.92;101477.69;5035280;28;46278;-46
2022/05/05 01:47:37;;;;;;;;;9.25;8.75;;;;;15.13;53.73;101455.69;5035431;28;45430;-47
2022/05/05 01:50:03;;;;;;;;;8.20;7.00;;;;;15.17;53.97;101479.88;5035269;28;45483;-48
2022/05/05 01:52:28;;;;;;;;;7.20;6.80;;;;;15.16;53.88;101478.19;5034469;28;45405;-48
2022/05/05 01:54:54;;;;;;;;;8.50;7.75;;;;;15.06;54.09;101472.34;5035545;28;46047;-48
2022/05/05 01:57:19;;;;;;;;;9.50;8.25;;;;;15.02;54.04;101471.06;5033979;28;45318;-46
2022/05/05 01:59:45;;;;;;;;;9.00;8.25;;;;;14.83;54.12;101451.63;5035208;28;45402;-47
2022/05/05 02:02:10;;;;;;;;;9.00;8.75;;;;;14.95;54.07;101489.63;5034949;28;45706;-49
2022/05/05 02:04:36;;;;;;;;;12.00;10.25;;;;;14.89;53.99;101475.63;5034768;28;45405;-50
2022/05/05 02:07:01;;;;;;;;;9.50;9.50;;;;;14.91;53.84;101484.53;5035271;28;45206;-46
2022/05/05 02:09:27;;;;;;;;;11.25;9.75;;;;;14.91;54.07;101478.16;5033815;28;45427;-47
2022/05/05 02:11:53;;;;;;;;;8.25;8.25;;;;;14.92;54.14;101485.38;5035074;28;45349;-48
2022/05/05 02:14:23;;;;;;;;;8.00;8.00;;;;;14.90;54.11;101487.53;5034358;28;45725;-49
2022/05/05 02:16:50;;;;;;;;;9.80;9.80;;;;;14.76;54.06;101465.53;5017449;28;45550;-46
2022/05/05 02:19:15;;;;;;;;;8.00;7.20;;;;;14.91;53.68;101484.53;5034424;28;45472;-46
2022/05/05 02:21:41;;;;;;;;;8.75;8.75;;;;;14.87;53.79;101483.31;5035412;28;45172;-48
2022/05/05 02:24:06;;;;;;;;;13.75;11.75;;;;;14.61;54.24;101449.22;5033629;28;45670;-48
2022/05/05 02:26:32;;;;;;;;;13.00;9.00;;;;;14.84;54.06;101482.91;5037733;28;45465;-47
2022/05/05 02:28:57;;;;;;;;;12.75;10.50;;;;;14.81;54.23;101478.66;5038311;28;45825;-48
2022/05/05 02:31:23;;;;;;;;;14.00;11.50;;;;;14.76;54.39;101479.34;5038413;28;45395;-48
2022/05/05 02:33:48;;;;;;;;;20.50;15.00;;;;;14.67;55.04;101485.31;5036581;28;46464;-48
2022/05/05 02:38:58;;;;;;;;;13.80;13.00;;;;;14.60;55.44;101468.75;5065842;28;45414;-46
2022/05/05 02:41:23;;;;;;;;;15.50;13.00;;;;;14.57;55.77;101474.75;5038062;28;45461;-46
2022/05/05 02:43:49;;;;;;;;;12.50;12.25;;;;;14.63;55.43;101473.84;5036615;28;45482;-49
2022/05/05 02:46:14;;;;;;;;;12.00;10.00;;;;;14.62;55.89;101475.75;5038052;28;45335;-48
2022/05/05 02:48:40;;;;;;;;;12.75;11.00;;;;;14.60;56.05;101471.53;5037739;28;45326;-49
2022/05/05 02:51:05;;;;;;;;;8.25;8.25;;;;;14.56;56.53;101464.75;5038167;28;45342;-46
2022/05/05 02:56:16;;;;;;;;;14.60;12.00;;;;;14.60;56.70;101477.03;5037709;28;45298;-49
2022/05/05 02:58:42;;;;;;;;;13.60;12.40;;;;;14.60;56.52;101466.00;5037616;28;45374;-47
2022/05/05 03:01:08;;;;;;;;;15.50;14.50;;;;;14.27;56.85;101409.03;5036771;28;45329;-46
2022/05/05 03:03:34;;;;;;;;;16.20;12.60;;;;;14.58;56.62;101474.50;5069708;28;45753;-47
2022/05/05 03:06:00;;;;;;;;;11.40;9.40;;;;;14.61;57.07;101481.50;5038154;28;45319;-47
2022/05/05 03:08:25;;;;;;;;;16.25;15.25;;;;;14.56;56.79;101473.88;5053538;28;45372;-47
2022/05/05 03:10:51;;;;;;;;;14.00;12.50;;;;;14.54;57.06;101475.16;5038035;28;45785;-48
2022/05/05 03:13:16;;;;;;;;;15.25;12.25;;;;;14.50;57.38;101472.84;5037473;28;46306;-47
2022/05/05 03:15:42;;;;;;;;;15.00;12.75;;;;;14.41;57.81;101468.63;5037354;28;45715;-46
2022/05/05 03:18:07;;;;;;;;;13.25;13.25;;;;;14.41;57.99;101474.16;5037683;28;45381;-48
2022/05/05 03:20:33;;;;;;;;;13.00;12.00;;;;;14.37;58.09;101476.53;5036455;28;45324;-52
2022/05/05 03:22:58;;;;;;;;;13.50;12.50;;;;;14.40;58.17;101475.22;5037119;28;46459;-46
2022/05/05 03:25:24;;;;;;;;;11.75;11.25;;;;;14.34;58.43;101471.44;5037353;28;45365;-48
2022/05/05 03:27:49;;;;;;;;;12.75;11.50;;;;;14.30;58.40;101467.41;5037231;28;45429;-50
2022/05/05 03:30:15;;;;;;;;;12.50;12.50;;;;;14.36;58.29;101471.25;5037610;27;45321;-49
2022/05/05 03:32:40;;;;;;;;;12.25;12.25;;;;;14.31;58.39;101471.88;5036645;28;46152;-49
2022/05/05 03:35:06;;;;;;;;;14.00;12.00;;;;;14.25;58.90;101474.69;5052688;27;45564;-46
2022/05/05 03:37:32;;;;;;;;;13.40;13.40;;;;;14.26;58.95;101474.47;5051379;28;45263;-47
2022/05/05 03:39:57;;;;;;;;;13.25;12.75;;;;;14.29;58.75;101478.72;5037383;28;45326;-48
2022/05/05 03:42:23;;;;;;;;;16.75;13.50;;;;;14.17;59.46;101482.13;5037158;28;45731;-48
2022/05/05 03:44:48;;;;;;;;;16.25;13.50;;;;;14.16;59.43;101479.59;5036775;28;45354;-49
2022/05/05 03:47:14;;;;;;;;;12.00;9.25;;;;;14.22;58.95;101485.09;5037174;28;45317;-49
2022/05/05 03:49:40;;;;;;;;;11.00;9.25;;;;;14.18;59.20;101478.31;5037096;28;45248;-47
2022/05/05 03:52:05;;;;;;;;;14.50;12.00;;;;;14.15;58.99;101481.50;5036511;28;45627;-47
2022/05/05 03:54:31;;;;;;;;;10.75;8.25;;;;;14.13;58.82;101491.91;5035486;28;45409;-48
2022/05/05 03:56:56;;;;;;;;;11.25;11.00;;;;;14.06;59.25;101491.09;5035703;28;45408;-49
2022/05/05 03:59:25;;;;;;;;;12.75;12.75;;;;;13.92;58.81;101462.66;5036764;28;45358;-49
2022/05/05 04:01:50;;;;;;;;;11.40;10.40;;;;;14.10;59.29;101495.94;5035655;28;46954;-48
2022/05/05 04:04:16;;;;;;;;;11.50;10.75;;;;;13.95;59.73;101490.72;5036425;28;45319;-48
2022/05/05 04:06:42;;;;;;;;;11.40;10.20;;;;;14.03;59.24;101491.53;5037060;28;45457;-48
2022/05/05 04:09:10;;;;;;;;;11.75;11.00;;;;;14.04;59.45;101494.06;5036800;28;45334;-49
2022/05/05 04:11:35;;;;;;;;;12.60;10.00;;;;;14.05;59.30;101489.41;5036370;28;45761;-51
2022/05/05 04:14:01;;;;;;;;;12.75;11.75;;;;;14.06;59.50;101488.31;5036427;28;45406;-48
2022/05/05 04:16:26;;;;;;;;;9.50;9.50;;;;;14.11;59.13;101499.56;5036851;28;45361;-48
2022/05/05 04:18:52;;;;;;;;;15.50;13.00;;;;;14.07;59.39;101495.53;5036833;28;45522;-48
2022/05/05 04:21:17;;;;;;;;;13.75;12.25;;;;;14.04;59.01;101493.22;5036320;28;46149;-46
2022/05/05 04:23:44;;;;;;;;;12.75;11.25;;;;;14.06;58.90;101507.66;5035166;28;45445;-51
2022/05/05 04:26:11;;;;;;;;;13.60;11.00;;;;;14.05;59.19;101503.19;5036275;28;45398;-51
2022/05/05 04:28:36;;;;;;;;;11.00;11.00;;;;;13.97;59.29;101490.47;5035626;28;45481;-50
2022/05/05 04:31:02;;;;;;;;;12.00;10.75;;;;;14.05;59.10;101511.47;5036483;28;46102;-49
2022/05/05 04:33:28;;;;;;;;;11.25;11.25;;;;;13.85;58.99;101493.06;5018600;28;45413;-50
2022/05/05 04:35:54;;;;;;;;;13.25;13.00;;;;;13.99;59.27;101523.38;5018235;28;45379;-47
2022/05/05 04:38:19;;;;;;;;;13.50;11.50;;;;;13.92;59.12;101518.72;5035013;28;45437;-45
2022/05/05 04:40:45;;;;;;;;;14.25;11.00;;;;;13.92;59.77;101515.09;5036146;28;46268;-49
2022/05/05 04:43:10;;;;;;;;;14.50;13.50;;;;;13.91;59.36;101521.69;5034736;28;45491;-49
2022/05/05 04:45:35;;;;;;;;;15.75;11.25;;;;;13.88;59.63;101520.19;5036515;28;45236;-48
2022/05/05 04:48:01;;;;;;;;;15.50;13.00;;;;;13.82;59.67;101502.59;5036257;28;45753;-48
2022/05/05 04:50:27;;;;;;;;;19.75;15.00;;;;;13.89;60.00;101523.81;5067794;28;45724;-48
2022/05/05 04:52:52;;;;;;;;;16.25;15.25;;;;;13.67;59.81;101482.69;5036090;28;45299;-48
2022/05/05 04:55:18;;;;;;;;;15.75;14.25;;;;;13.88;59.97;101527.66;5030242;28;45397;-47
2022/05/05 04:57:43;;;;;;;;;16.75;14.25;;;;;13.83;59.93;101526.38;5032875;28;45694;-49
2022/05/05 05:00:09;;;;;;;;;17.50;13.25;;;;;13.86;59.97;101521.50;5032381;28;45447;-49
2022/05/05 05:02:35;;;;;;;;;18.20;16.00;;;;;13.87;60.05;101514.91;5033633;28;45346;-49
2022/05/05 05:05:01;;;;;;;;;23.25;14.50;;;;;13.91;60.14;101527.22;5032279;28;45317;-48
2022/05/05 05:07:26;;;;;;;;;17.50;16.00;;;;;13.91;60.14;101528.06;5048729;28;45467;-50
2022/05/05 05:09:52;;;;;;;;;15.50;15.50;;;;;13.94;60.39;101530.38;5033467;28;45373;-51
2022/05/05 05:12:17;;;;;;;;;17.75;15.75;;;;;13.93;60.69;101531.44;5036007;28;45312;-52
2022/05/05 05:14:43;;;;;;;;;24.50;20.50;;;;;13.92;60.75;101535.28;5035535;28;45407;-50
2022/05/05 05:17:08;;;;;;;;;19.25;15.50;;;;;13.95;60.95;101534.88;5036479;28;45523;-47
2022/05/05 05:19:34;;;;;;;;;21.00;17.25;;;;;13.76;60.83;101503.47;5035386;28;46311;-47
2022/05/05 05:21:59;;;;;;;;;23.25;16.75;;;;;13.99;60.74;101545.47;5036029;28;45352;-49
2022/05/05 05:24:25;;;;;;;;;16.50;16.50;;;;;13.96;61.18;101539.31;5034367;28;45512;-49
2022/05/05 05:26:50;;;;;;;;;24.50;19.50;;;;;14.02;61.45;101545.88;5068553;28;45551;-47
2022/05/05 05:29:16;;;;;;;;;19.00;15.25;;;;;14.04;61.37;101551.19;5035908;28;45559;-50
2022/05/05 05:31:41;;;;;;;;;22.50;16.25;;;;;14.05;61.21;101555.63;5035293;28;45462;-53
2022/05/05 05:34:07;;;;;;;;;27.00;24.75;;;;;14.06;61.12;101557.34;5036040;28;45329;-50
2022/05/05 05:36:32;;;;;;;;;26.75;23.50;;;;;14.00;61.33;101550.78;5035742;28;45395;-48
2022/05/05 05:38:58;;;;;;;;;25.50;18.00;;;;;13.89;61.18;101523.81;5035453;28;46135;-47
2022/05/05 05:41:23;;;;;;;;;22.00;16.50;;;;;14.12;61.57;101555.59;5035696;28;45358;-49
2022/05/05 05:43:49;;;;;;;;;26.00;21.75;;;;;14.12;60.94;101555.59;5035695;28;45354;-46
2022/05/05 05:46:15;;;;;;;;;24.75;22.00;;;;;14.15;61.36;101563.47;5035961;28;45536;-47
2022/05/05 05:48:40;;;;;;;;;28.80;25.40;;;;;14.15;61.23;101561.53;5035273;28;46670;-48
2022/05/05 05:51:06;;;;;;;;;24.00;21.75;;;;;14.15;61.68;101572.59;5035447;28;45343;-49
2022/05/05 05:53:31;;;;;;;;;23.75;21.25;;;;;14.10;62.43;101562.19;5035532;28;45366;-52
2022/05/05 05:55:57;;;;;;;;;27.00;21.50;;;;;14.13;62.00;101562.84;5035307;28;45397;-47
2022/05/05 05:58:22;;;;;;;;;26.00;24.75;;;;;14.21;61.61;101571.72;5035316;28;45464;-46
2022/05/05 06:00:48;;;;;;;;;27.00;23.75;;;;;14.24;62.12;101564.94;5037430;28;45753;-49
2022/05/05 06:05:57;;;;;;;;;24.80;21.20;;;;;14.29;61.79;101567.91;5037434;28;45405;-47
2022/05/05 06:08:23;;;;;;;;;35.00;28.25;;;;;14.27;61.52;101570.03;5038366;28;46082;-47
2022/05/05 06:10:48;;;;;;;;;27.00;24.50;;;;;13.95;61.77;101518.31;5038298;28;45379;-47
2022/05/05 06:13:14;;;;;;;;;26.50;24.00;;;;;14.29;61.95;101570.66;5038279;28;45283;-47
2022/05/05 06:15:40;;;;;;;;;28.75;25.25;;;;;14.29;62.26;101558.78;5038555;28;45397;-48
2022/05/05 06:18:05;;;;;;;;;29.25;22.25;;;;;14.38;61.76;101568.50;5038071;28;46010;-49
2022/05/05 06:20:34;;;;;;;;;25.50;23.00;;;;;14.42;61.34;101563.41;5038134;28;45390;-47
2022/05/05 06:23:00;;;;;;;;;25.00;20.80;;;;;14.44;61.69;101558.50;5038250;28;45294;-49
2022/05/05 06:25:25;;;;;;;;;26.00;25.50;;;;;14.54;61.46;101580.13;5038544;28;45332;-50
2022/05/05 06:27:51;;;;;;;;;24.25;23.00;;;;;14.58;61.19;101564.81;5024611;28;46597;-48
2022/05/05 06:30:17;;;;;;;;;27.00;22.50;;;;;14.56;61.41;101580.78;5030052;28;45893;-46
2022/05/05 06:32:43;;;;;;;;;22.50;22.00;;;;;14.52;61.47;101585.03;5034055;28;45419;-50
2022/05/05 06:35:09;;;;;;;;;25.40;25.40;;;;;14.28;61.62;101551.53;5035916;28;45325;-51
2022/05/05 06:37:34;;;;;;;;;25.25;23.75;;;;;14.40;61.63;101571.88;5036901;28;46591;-51
2022/05/05 06:40:03;;;;;;;;;32.00;23.50;;;;;14.48;61.56;101585.44;5036219;28;45925;-51
2022/05/05 06:42:28;;;;;;;;;23.80;20.60;;;;;14.43;61.48;101579.75;5038352;28;45415;-50
2022/05/05 06:44:54;;;;;;;;;23.25;23.25;;;;;14.53;61.81;101587.59;5037266;28;45667;-49
2022/05/05 06:47:19;;;;;;;;;27.25;25.50;;;;;14.59;61.59;101596.91;5037905;28;46504;-48
2022/05/05 06:49:45;;;;;;;;;25.50;25.00;;;;;14.61;61.14;101592.00;5036686;28;45382;-47
2022/05/05 06:52:10;;;;;;;;;25.00;23.75;;;;;14.58;61.70;101598.81;5036295;28;45366;-48
2022/05/05 06:54:36;;;;;;;;;34.25;26.50;;;;;14.59;61.65;101596.91;5038248;28;45297;-50
2022/05/05 06:57:02;;;;;;;;;27.25;23.25;;;;;14.60;61.54;101595.84;5037531;28;45806;-48
2022/05/05 06:59:27;;;;;;;;;27.75;23.25;;;;;14.66;62.01;101606.00;5037498;28;45375;-50
2022/05/05 07:01:53;;;;;;;;;27.00;26.00;;;;;14.60;61.38;101593.06;5037500;28;45282;-48
2022/05/05 07:07:04;;;;;;;;;29.00;25.00;;;;;14.72;61.57;101604.28;5036333;28;45361;-50
2022/05/05 07:12:13;;;;;;;;;38.60;31.60;;;;;14.80;61.37;101612.38;5037024;28;45469;-49
2022/05/05 07:14:39;;;;;;;;;29.50;24.25;;;;;14.73;61.39;101603.25;5031922;28;45831;-52
2022/05/05 07:17:05;;;;;;;;;26.25;23.00;;;;;14.45;61.78;101572.09;5031604;28;45890;-51
2022/05/05 07:19:32;;;;;;;;;16.25;16.00;;;;;14.73;61.87;101623.41;5035980;28;45373;-50
2022/05/05 07:21:58;;;;;;;;;27.40;26.40;;;;;14.75;61.91;101618.56;5035869;28;45387;-49
2022/05/05 07:24:23;;;;;;;;;29.00;26.25;;;;;14.74;62.02;101622.38;5036850;28;45317;-48
2022/05/05 07:26:49;;;;;;;;;26.25;25.00;;;;;14.68;62.46;101623.22;5036374;28;45984;-47
2022/05/05 07:29:15;;;;;;;;;24.75;24.75;;;;;14.80;61.67;101628.09;5034556;28;45869;-47
2022/05/05 07:31:41;;;;;;;;;25.80;25.20;;;;;14.86;61.76;101621.69;5054801;28;45435;-49
2022/05/05 07:34:07;;;;;;;;;26.20;21.40;;;;;14.92;61.16;101626.34;5040926;28;45531;-49
2022/05/05 07:36:33;;;;;;;;;24.50;21.25;;;;;14.93;61.21;101622.50;5035192;28;45436;-46
2022/05/05 07:38:58;;;;;;;;;24.75;22.50;;;;;14.91;61.15;101616.38;5034131;28;46038;-47
2022/05/05 07:41:24;;;;;;;;;29.00;26.50;;;;;15.04;61.19;101635.66;5030852;28;46015;-46
2022/05/05 07:43:52;;;;;;;;;22.50;19.00;;;;;15.00;60.33;101634.38;4989687;27;45638;-47
2022/05/05 07:46:18;;;;;;;;;32.00;25.40;;;;;14.96;61.03;101633.16;5030159;28;45481;-46
2022/05/05 07:48:44;;;;;;;;;27.25;21.00;;;;;14.92;60.98;101623.59;5013703;28;45757;-44
2022/05/05 07:51:10;;;;;;;;;28.20;22.40;;;;;14.97;60.58;101628.44;5040224;28;45485;-47
2022/05/05 07:53:36;;;;;;;;;29.40;25.40;;;;;14.94;60.13;101613.16;5039543;28;45477;-47
2022/05/05 07:56:01;;;;;;;;;21.75;20.50;;;;;15.22;60.00;101642.38;5029036;28;45858;-50
2022/05/05 07:58:27;;;;;;;;;24.75;20.50;;;;;15.29;59.23;101640.41;5032512;28;45688;-51
2022/05/05 08:00:52;;;;;;;;;27.25;22.25;;;;;15.27;59.49;101638.94;5031126;28;45469;-49
2022/05/05 08:03:18;;;;;;;;;26.25;23.25;;;;;15.32;59.02;101639.97;5030729;28;45674;-55
2022/05/05 08:05:44;;;;;;;;;30.25;24.50;;;;;15.46;58.90;101642.63;5031945;28;46547;-52
2022/05/05 08:08:11;;;;;;;;;23.00;22.80;;;;;15.41;59.13;101634.16;5031089;28;45525;-55
2022/05/05 08:10:36;;;;;;;;;23.00;21.50;;;;;15.40;58.94;101622.25;5029860;28;45422;-54
2022/05/05 08:13:03;;;;;;;;;22.50;20.00;;;;;15.50;58.90;101627.31;5029914;28;45827;-48
2022/05/05 08:15:29;;;;;;;;;24.20;24.20;;;;;15.13;58.29;101561.59;5032147;28;46157;-55
2022/05/05 08:17:55;;;;;;;;;22.25;18.50;;;;;15.50;58.43;101604.31;5030195;28;46307;-50
2022/05/05 08:20:20;;;;;;;;;26.25;25.00;;;;;15.82;58.21;101643.03;5030933;28;45794;-52
2022/05/05 08:22:46;;;;;;;;;23.50;20.75;;;;;15.90;57.58;101645.50;5031788;28;45452;-53
2022/05/05 08:30:39;;;;;;;;;18.00;17.20;;;;;16.00;57.11;101642.25;5032047;28;45345;-53
2022/05/05 08:33:05;;;;;;;;;26.50;24.75;;;;;15.99;57.26;101646.09;5064935;28;45389;-49
2022/05/05 08:35:31;;;;;;;;;23.00;21.00;;;;;15.93;57.16;101611.88;5030884;28;46370;-51
2022/05/05 08:37:56;;;;;;;;;27.75;25.00;;;;;16.19;57.19;101637.63;5063852;27;45438;-49
2022/05/05 08:40:26;;;;;;;;;22.25;21.75;;;;;16.12;56.55;101637.69;5032239;28;45818;-52
2022/05/05 08:42:52;;;;;;;;;28.00;24.60;;;;;16.16;57.17;101646.38;5022548;27;45848;-47
2022/05/05 08:45:17;;;;;;;;;32.75;26.50;;;;;16.12;56.12;101634.91;5047141;28;46570;-49
2022/05/05 08:47:44;;;;;;;;;29.50;25.75;;;;;16.35;55.97;101649.19;5031532;28;45439;-54
2022/05/05 08:50:12;;;;;;;;;27.60;22.80;;;;;16.46;55.37;101651.19;5043805;28;45488;-52
2022/05/05 08:52:49;;;;;;;;;27.20;22.80;;;;;16.65;55.12;101659.53;5012756;28;45855;-46
2022/05/05 08:55:15;;;;;;;;;28.60;26.40;;;;;16.76;54.86;101655.97;5031761;28;46421;-50
2022/05/05 08:57:41;;;;;;;;;34.40;29.60;;;;;16.82;54.45;101651.44;5030989;28;45457;-50
2022/05/05 09:00:08;;;;;;;;;23.00;22.00;;;;;16.94;54.39;101654.28;5029206;28;45504;-50
2022/05/05 09:02:33;;;;;;;;;20.40;19.40;;;;;17.00;53.99;101653.34;5030756;28;45605;-50
2022/05/05 09:04:59;;;;;;;;;21.75;21.00;;;;;17.03;53.48;101655.66;5029530;28;46764;-47
2022/05/05 09:07:48;;;;;;;;;16.25;16.25;;;;;17.09;53.70;101656.69;5045697;28;45509;-49
2022/05/05 09:10:14;;;;;;;;;22.00;21.40;;;;;17.18;53.43;101655.25;5049160;28;45465;-50
2022/05/05 09:12:39;;;;;;;;;21.40;18.80;;;;;17.25;53.39;101657.97;5051844;28;45651;-49
2022/05/05 09:15:09;;;;;;;;;25.50;24.50;;;;;17.32;53.18;101655.06;5051342;28;45959;-51
2022/05/05 09:17:35;;;;;;;;;22.40;20.60;;;;;17.32;52.72;101661.47;5051519;28;45432;-50
2022/05/05 09:20:01;;;;;;;;;20.00;19.00;;;;;17.29;53.20;101661.09;5033940;28;46065;-49
2022/05/05 09:22:27;;;;;;;;;19.50;17.75;;;;;17.25;53.23;101657.97;5031253;28;45381;-44
2022/05/05 09:24:54;;;;;;;;;20.50;20.50;;;;;17.18;53.59;101657.22;5030799;28;46099;-47
2022/05/05 09:27:31;;;;;;;;;22.40;20.20;;;;;17.14;53.73;101658.75;5029662;28;45746;-50
2022/05/05 09:30:08;;;;;;;;;18.60;18.60;;;;;17.00;53.66;101622.84;5029693;28;45480;-49
2022/05/05 09:32:35;;;;;;;;;22.80;20.40;;;;;17.26;53.45;101656.00;5030959;28;45460;-47
2022/05/05 09:35:12;;;;;;;;;19.00;16.60;;;;;17.28;53.55;101654.69;5030055;28;47106;-50
2022/05/05 09:37:41;;;;;;;;;20.40;18.80;;;;;17.28;53.07;101659.41;5030289;28;46160;-50
2022/05/05 09:40:07;;;;;;;;;16.40;16.40;;;;;17.18;53.00;101648.88;5029694;28;45506;-54
2022/05/05 09:42:40;;;;;;;;;12.00;12.00;;;;;17.23;52.71;101634.31;5045874;28;45513;-47
2022/05/05 09:45:12;;;;;;;;;13.20;13.20;;;;;17.56;51.61;101653.22;5016621;28;46181;-45
2022/05/05 09:47:41;;;;;;;;;18.80;15.40;;;;;17.63;51.91;101658.69;5030398;28;45491;-46
2022/05/05 09:50:07;;;;;;;;;20.20;17.40;;;;;17.66;51.49;101652.66;5028638;28;45866;-48
2022/05/05 09:58:03;;;;;;;;;9.40;9.40;;;;;18.07;49.31;101663.13;5029704;28;45429;-48
2022/05/05 10:05:49;;;;;;;;;10.20;9.40;;;;;17.80;47.72;101669.09;5028685;28;45746;-51
2022/05/05 10:08:20;;;;;;;;;9.40;8.00;;;;;17.63;48.29;101652.28;5045900;27;46069;-49
2022/05/05 10:10:46;;;;;;;;;9.20;8.60;;;;;17.64;47.72;101667.84;5044962;28;45491;-50
2022/05/05 10:13:14;;;;;;;;;9.75;9.75;;;;;17.38;48.08;101628.31;5028237;28;45825;-52
2022/05/05 10:15:39;;;;;;;;;8.40;8.40;;;;;17.61;48.67;101669.19;5062067;28;45793;-50
2022/05/05 10:18:05;;;;;;;;;9.00;7.75;;;;;17.54;48.21;101660.09;5029174;28;45851;-50
2022/05/05 10:20:32;;;;;;;;;8.75;7.75;;;;;17.59;47.96;101657.47;5030654;28;45861;-49
2022/05/05 10:23:05;;;;;;;;;8.40;8.00;;;;;17.62;48.06;101654.22;5013164;28;45523;-48
2022/05/05 10:25:32;;;;;;;;;10.00;7.80;;;;;17.36;48.23;101599.97;5028835;28;46045;-49
2022/05/05 10:27:59;;;;;;;;;10.20;9.20;;;;;17.85;48.36;101672.00;5045569;28;45519;-52
2022/05/05 10:30:35;;;;;;;;;14.00;11.80;;;;;17.89;48.08;101667.69;5030522;28;45445;-50
2022/05/05 10:33:06;;;;;;;;;12.80;12.80;;;;;17.86;47.78;101657.88;5030796;28;45484;-48
2022/05/05 10:35:39;;;;;;;;;10.60;10.60;;;;;17.79;47.61;101654.38;5030312;28;45582;-51
2022/05/05 10:38:32;;;;;;;;;8.60;8.40;;;;;17.68;47.26;101664.38;5030441;28;45691;-54
2022/05/05 10:40:58;;;;;;;;;11.00;11.00;;;;;17.34;47.07;101616.84;5029559;28;45958;-49
2022/05/05 10:43:33;;;;;;;;;8.00;8.00;;;;;17.46;47.66;101658.50;5029390;28;45540;-46
2022/05/05 10:45:59;;;;;;;;;9.60;7.00;;;;;17.35;47.37;101662.94;5021964;27;46831;-53
2022/05/05 10:48:31;;;;;;;;;8.00;6.00;;;;;17.25;47.51;101646.88;5033841;28;45714;-48
2022/05/05 10:51:04;;;;;;;;;8.80;8.80;;;;;17.29;47.87;101661.09;5066330;28;45829;-48
2022/05/05 10:53:42;;;;;;;;;8.20;8.00;;;;;17.18;47.76;101624.75;5033684;28;45433;-53
2022/05/05 10:56:20;;;;;;;;;9.80;8.20;;;;;17.46;48.30;101664.91;4998565;28;46603;-54
2022/05/05 10:58:57;;;;;;;;;9.00;8.20;;;;;17.63;48.26;101649.50;5032011;28;45806;-52
2022/05/05 11:01:26;;;;;;;;;10.20;10.00;;;;;17.77;47.87;101639.03;5033953;28;45428;-50
2022/05/05 11:04:20;;;;;;;;;10.00;9.00;;;;;17.97;47.14;101647.88;5034017;28;45514;-49
2022/05/05 11:06:48;;;;;;;;;11.80;8.60;;;;;17.75;46.71;101604.03;5033501;28;45484;-49
2022/05/05 11:09:32;;;;;;;;;10.00;6.80;;;;;18.07;46.91;101635.34;5065346;27;45404;-50
2022/05/05 11:12:18;;;;;;;;;10.20;8.20;;;;;18.07;46.52;101643.69;5033649;28;45858;-50
2022/05/05 11:23:13;;;;;;;;;8.00;8.00;;;;;18.29;45.26;101630.03;5031655;28;45492;-50
2022/05/05 11:25:42;;;;;;;;;9.50;7.50;;;;;18.14;45.53;101645.25;5048920;27;45422;-48
2022/05/05 11:28:10;;;;;;;;;5.00;5.00;;;;;17.96;45.81;101650.88;5033312;28;46171;-50
2022/05/05 11:30:36;;;;;;;;;5.00;5.00;;;;;17.79;45.28;101639.63;5033356;28;45844;-52
2022/05/05 11:33:03;;;;;;;;;6.00;6.00;;;;;17.73;46.12;101647.00;5048621;28;45452;-54
2022/05/05 11:35:29;;;;;;;;;6.40;6.40;;;;;17.70;46.39;101648.31;5065412;28;45494;-52
2022/05/05 11:37:54;;;;;;;;;6.00;4.75;;;;;17.61;46.29;101641.44;5065421;28;46586;-49
2022/05/05 11:40:20;;;;;;;;;5.25;5.25;;;;;17.61;46.78;101647.81;5026090;28;45903;-51
2022/05/05 11:45:30;;;;;;;;;6.40;5.80;;;;;17.65;46.43;101636.25;5023744;27;45643;-51
2022/05/05 11:47:56;;;;;;;;;4.60;4.60;;;;;17.68;45.91;101631.06;5031323;28;45757;-53
2022/05/05 11:50:21;;;;;;;;;7.00;7.00;;;;;17.58;46.10;101611.34;5031730;28;45468;-51
2022/05/05 11:52:47;;;;;;;;;5.00;5.00;;;;;17.73;46.29;101622.00;5031259;28;45589;-49
2022/05/05 11:55:13;;;;;;;;;5.25;5.25;;;;;17.70;46.14;101609.47;5032156;28;45793;-54
2022/05/05 11:57:39;;;;;;;;;7.75;6.00;;;;;17.91;46.16;101648.84;5030743;28;46021;-53
2022/05/05 12:02:51;;;;;;;;;6.60;5.60;;;;;17.97;45.77;101642.31;5032349;28;45458;-54